Terminal Aerodrome Forecast
Issued by NWS Wilmington, OH

Current Version | Previous Version | Graphics & Text | Print | Product List | Glossary On
Versions: 1 2 3 4 5 6 7 8 9 10 11 12 13 14 15 16 17 18 19 20 21 22 23
000
FTUS41 KILN 241200 AAA
TAFILN
TAF AMD
KILN 241225Z 2412/2512 18018G30KT P6SM VCSH SCT025 BKN040
     FM241400 19022G34KT P6SM VCSH BKN025
      TEMPO 2415/2417 23024G36KT 5SM -SHRA BR OVC015
     FM241700 24016G28KT P6SM OVC025
     FM250300 23013G20KT P6SM SCT025
      TEMPO 2509/2512 BKN025=

USA.gov is the U.S. government's official web portal to all federal, state and local government web resources and services.